sensor_id;sensor_type;location;lat;lon;timestamp;pressure;altitude;pressure_sealevel;temperature;humidity
85119;BME280;75469;47.654;10.494;2024-02-23T00:00:00;89916.47;;;3.08;84.85
85119;BME280;75469;47.654;10.494;2024-02-23T00:02:31;89908.59;;;3.01;84.59
85119;BME280;75469;47.654;10.494;2024-02-23T00:04:56;89914.56;;;3.02;84.39
85119;BME280;75469;47.654;10.494;2024-02-23T00:07:22;89908.59;;;3.01;84.89
85119;BME280;75469;47.654;10.494;2024-02-23T00:09:47;89907.91;;;3.08;84.75
85119;BME280;75469;47.654;10.494;2024-02-23T00:12:13;89916.88;;;3.10;84.98
85119;BME280;75469;47.654;10.494;2024-02-23T00:14:39;89903.44;;;3.12;84.97
85119;BME280;75469;47.654;10.494;2024-02-23T00:17:05;89910.84;;;3.06;84.90
85119;BME280;75469;47.654;10.494;2024-02-23T00:19:31;89921.31;;;3.10;84.26
85119;BME280;75469;47.654;10.494;2024-02-23T00:21:57;89904.22;;;3.16;83.74
85119;BME280;75469;47.654;10.494;2024-02-23T00:24:25;89909.09;;;3.21;83.15
85119;BME280;75469;47.654;10.494;2024-02-23T00:26:50;89916.25;;;3.31;82.85
85119;BME280;75469;47.654;10.494;2024-02-23T00:29:17;89915.09;;;3.25;82.75
85119;BME280;75469;47.654;10.494;2024-02-23T00:31:42;89917.00;;;3.28;82.32
85119;BME280;75469;47.654;10.494;2024-02-23T00:34:10;89922.22;;;3.32;82.06
85119;BME280;75469;47.654;10.494;2024-02-23T00:36:39;89905.41;;;3.29;82.37
85119;BME280;75469;47.654;10.494;2024-02-23T00:39:08;89924.84;;;3.32;81.73
85119;BME280;75469;47.654;10.494;2024-02-23T00:41:34;89917.66;;;3.18;81.88
85119;BME280;75469;47.654;10.494;2024-02-23T00:44:01;89902.72;;;3.18;81.69
85119;BME280;75469;47.654;10.494;2024-02-23T00:46:26;89912.09;;;3.23;81.09
85119;BME280;75469;47.654;10.494;2024-02-23T00:48:52;89910.91;;;3.13;82.10
85119;BME280;75469;47.654;10.494;2024-02-23T00:51:17;89923.16;;;3.06;82.12
85119;BME280;75469;47.654;10.494;2024-02-23T00:53:43;89926.91;;;3.08;81.65
85119;BME280;75469;47.654;10.494;2024-02-23T00:56:08;89920.97;;;3.08;80.60
85119;BME280;75469;47.654;10.494;2024-02-23T00:58:34;89915.00;;;3.07;81.53
85119;BME280;75469;47.654;10.494;2024-02-23T01:01:00;89924.28;;;3.05;81.23
85119;BME280;75469;47.654;10.494;2024-02-23T01:03:25;89914.19;;;3.03;81.33
85119;BME280;75469;47.654;10.494;2024-02-23T01:05:51;89911.56;;;3.00;80.83
85119;BME280;75469;47.654;10.494;2024-02-23T01:08:17;89924.59;;;2.96;80.79
85119;BME280;75469;47.654;10.494;2024-02-23T01:10:44;89910.81;;;2.99;79.54
85119;BME280;75469;47.654;10.494;2024-02-23T01:13:09;89916.03;;;2.99;79.35
85119;BME280;75469;47.654;10.494;2024-02-23T01:15:35;89914.19;;;3.00;77.79
85119;BME280;75469;47.654;10.494;2024-02-23T01:18:00;89904.16;;;3.05;77.19
85119;BME280;75469;47.654;10.494;2024-02-23T01:20:26;89920.13;;;2.96;77.31
85119;BME280;75469;47.654;10.494;2024-02-23T01:22:52;89900.78;;;3.05;76.81
85119;BME280;75469;47.654;10.494;2024-02-23T01:25:17;89903.41;;;3.05;76.85
85119;BME280;75469;47.654;10.494;2024-02-23T01:27:43;89890.72;;;3.07;76.55
85119;BME280;75469;47.654;10.494;2024-02-23T01:30:11;89882.94;;;3.17;74.59
85119;BME280;75469;47.654;10.494;2024-02-23T01:32:37;89893.41;;;3.17;73.03
85119;BME280;75469;47.654;10.494;2024-02-23T01:35:05;89892.66;;;3.17;74.31
85119;BME280;75469;47.654;10.494;2024-02-23T01:37:31;89892.28;;;3.18;73.44
85119;BME280;75469;47.654;10.494;2024-02-23T01:39:59;89888.56;;;3.16;73.70
85119;BME280;75469;47.654;10.494;2024-02-23T01:42:25;89885.94;;;3.16;73.35
85119;BME280;75469;47.654;10.494;2024-02-23T01:44:51;89894.88;;;3.15;73.48
85119;BME280;75469;47.654;10.494;2024-02-23T01:47:18;89899.44;;;3.29;72.25
85119;BME280;75469;47.654;10.494;2024-02-23T01:49:45;89889.00;;;3.32;72.39
85119;BME280;75469;47.654;10.494;2024-02-23T01:52:12;89894.22;;;3.29;73.05
85119;BME280;75469;47.654;10.494;2024-02-23T01:54:39;89890.78;;;3.17;73.92
85119;BME280;75469;47.654;10.494;2024-02-23T01:57:06;89884.84;;;3.20;73.55
85119;BME280;75469;47.654;10.494;2024-02-23T01:59:35;89890.03;;;3.17;73.80
85119;BME280;75469;47.654;10.494;2024-02-23T02:02:03;89889.31;;;3.20;73.13
85119;BME280;75469;47.654;10.494;2024-02-23T02:04:29;89888.19;;;3.17;73.71
85119;BME280;75469;47.654;10.494;2024-02-23T02:06:55;89896.00;;;3.14;74.13
85119;BME280;75469;47.654;10.494;2024-02-23T02:09:21;89890.09;;;3.28;72.39
85119;BME280;75469;47.654;10.494;2024-02-23T02:11:48;89895.22;;;3.86;73.29
85119;BME280;75469;47.654;10.494;2024-02-23T02:14:15;89907.94;;;3.88;70.31
85119;BME280;75469;47.654;10.494;2024-02-23T02:16:41;89907.41;;;3.50;71.65
85119;BME280;75469;47.654;10.494;2024-02-23T02:19:06;89918.50;;;3.36;71.06
85119;BME280;75469;47.654;10.494;2024-02-23T02:21:33;89918.47;;;3.29;72.13
85119;BME280;75469;47.654;10.494;2024-02-23T02:23:58;89926.31;;;3.29;71.50
85119;BME280;75469;47.654;10.494;2024-02-23T02:26:24;89920.38;;;3.36;71.33
85119;BME280;75469;47.654;10.494;2024-02-23T02:28:50;89925.19;;;3.30;72.42
85119;BME280;75469;47.654;10.494;2024-02-23T02:31:15;89937.13;;;3.28;72.58
85119;BME280;75469;47.654;10.494;2024-02-23T02:33:41;89939.38;;;3.29;72.18
85119;BME280;75469;47.654;10.494;2024-02-23T02:36:06;89941.19;;;3.21;73.47
85119;BME280;75469;47.654;10.494;2024-02-23T02:38:32;89935.91;;;3.11;74.31
85119;BME280;75469;47.654;10.494;2024-02-23T02:41:01;89926.22;;;3.15;74.51
85119;BME280;75469;47.654;10.494;2024-02-23T02:43:27;89925.78;;;3.06;74.33
85119;BME280;75469;47.654;10.494;2024-02-23T02:45:52;89935.09;;;3.03;75.26
85119;BME280;75469;47.654;10.494;2024-02-23T02:48:18;89919.34;;;2.89;74.92
85119;BME280;75469;47.654;10.494;2024-02-23T02:50:44;89924.94;;;2.91;75.26
85119;BME280;75469;47.654;10.494;2024-02-23T02:53:10;89924.16;;;2.87;75.99
85119;BME280;75469;47.654;10.494;2024-02-23T02:55:36;89931.19;;;2.83;76.60
85119;BME280;75469;47.654;10.494;2024-02-23T02:58:02;89920.69;;;2.72;77.09
85119;BME280;75469;47.654;10.494;2024-02-23T03:00:28;89925.44;;;2.59;78.68
85119;BME280;75469;47.654;10.494;2024-02-23T03:02:54;89927.50;;;2.43;79.74
85119;BME280;75469;47.654;10.494;2024-02-23T03:05:20;89919.22;;;2.34;80.50
85119;BME280;75469;47.654;10.494;2024-02-23T03:07:48;89919.47;;;2.21;81.02
85119;BME280;75469;47.654;10.494;2024-02-23T03:10:15;89923.63;;;2.26;80.74
85119;BME280;75469;47.654;10.494;2024-02-23T03:12:41;89931.78;;;2.21;81.76
85119;BME280;75469;47.654;10.494;2024-02-23T03:15:07;89932.19;;;2.26;80.96
85119;BME280;75469;47.654;10.494;2024-02-23T03:17:35;89932.09;;;2.16;81.51
85119;BME280;75469;47.654;10.494;2024-02-23T03:20:00;89932.94;;;2.27;81.55
85119;BME280;75469;47.654;10.494;2024-02-23T03:22:26;89931.41;;;2.22;80.91
85119;BME280;75469;47.654;10.494;2024-02-23T03:24:51;89937.75;;;2.25;81.62
85119;BME280;75469;47.654;10.494;2024-02-23T03:27:17;89946.00;;;2.27;81.88
85119;BME280;75469;47.654;10.494;2024-02-23T03:29:44;89944.44;;;2.22;82.49
85119;BME280;75469;47.654;10.494;2024-02-23T03:32:10;89955.09;;;2.06;82.81
85119;BME280;75469;47.654;10.494;2024-02-23T03:34:35;89953.16;;;2.00;83.22
85119;BME280;75469;47.654;10.494;2024-02-23T03:37:02;89947.28;;;1.76;83.90
85119;BME280;75469;47.654;10.494;2024-02-23T03:39:29;89950.16;;;1.68;84.20
85119;BME280;75469;47.654;10.494;2024-02-23T03:41:55;89955.25;;;1.57;84.56
85119;BME280;75469;47.654;10.494;2024-02-23T03:44:21;89968.41;;;1.41;84.50
85119;BME280;75469;47.654;10.494;2024-02-23T03:46:46;89970.97;;;1.37;84.89
85119;BME280;75469;47.654;10.494;2024-02-23T03:49:12;89978.34;;;1.32;85.30
85119;BME280;75469;47.654;10.494;2024-02-23T03:51:37;89973.34;;;1.20;85.30
85119;BME280;75469;47.654;10.494;2024-02-23T03:54:05;89987.88;;;1.21;85.30
85119;BME280;75469;47.654;10.494;2024-02-23T03:56:40;89981.59;;;1.25;85.19
85119;BME280;75469;47.654;10.494;2024-02-23T03:59:07;89987.38;;;1.11;85.01
85119;BME280;75469;47.654;10.494;2024-02-23T04:01:36;89983.84;;;1.00;85.94
85119;BME280;75469;47.654;10.494;2024-02-23T04:04:02;89984.44;;;1.17;85.17
85119;BME280;75469;47.654;10.494;2024-02-23T04:06:28;89975.66;;;1.02;85.39
85119;BME280;75469;47.654;10.494;2024-02-23T04:08:53;89971.44;;;1.17;84.97
85119;BME280;75469;47.654;10.494;2024-02-23T04:11:18;89980.25;;;1.08;85.42
85119;BME280;75469;47.654;10.494;2024-02-23T04:13:44;89973.72;;;0.95;86.19
85119;BME280;75469;47.654;10.494;2024-02-23T04:16:09;89975.88;;;0.89;86.25
85119;BME280;75469;47.654;10.494;2024-02-23T04:18:35;89981.06;;;0.89;86.03
85119;BME280;75469;47.654;10.494;2024-02-23T04:21:00;89981.28;;;1.04;85.57
85119;BME280;75469;47.654;10.494;2024-02-23T04:23:26;89987.53;;;0.99;85.83
85119;BME280;75469;47.654;10.494;2024-02-23T04:25:51;89985.75;;;1.03;85.67
85119;BME280;75469;47.654;10.494;2024-02-23T04:28:17;89980.13;;;1.01;85.90
85119;BME280;75469;47.654;10.494;2024-02-23T04:30:43;89978.06;;;0.87;85.53
85119;BME280;75469;47.654;10.494;2024-02-23T04:33:09;89976.91;;;0.85;85.85
85119;BME280;75469;47.654;10.494;2024-02-23T04:35:34;89985.00;;;0.80;85.80
85119;BME280;75469;47.654;10.494;2024-02-23T04:38:02;89986.97;;;0.63;86.36
85119;BME280;75469;47.654;10.494;2024-02-23T04:40:27;89989.75;;;0.74;86.06
85119;BME280;75469;47.654;10.494;2024-02-23T04:42:53;89976.91;;;0.62;85.47
85119;BME280;75469;47.654;10.494;2024-02-23T04:45:20;89978.75;;;0.61;85.77
85119;BME280;75469;47.654;10.494;2024-02-23T04:47:46;89986.22;;;0.63;84.74
85119;BME280;75469;47.654;10.494;2024-02-23T04:50:14;89975.00;;;0.59;84.70
85119;BME280;75469;47.654;10.494;2024-02-23T04:52:40;89967.31;;;0.66;83.79
85119;BME280;75469;47.654;10.494;2024-02-23T04:55:05;89966.09;;;0.60;84.17
85119;BME280;75469;47.654;10.494;2024-02-23T04:57:32;89965.34;;;0.59;84.58
85119;BME280;75469;47.654;10.494;2024-02-23T04:59:57;89961.13;;;0.74;84.16
85119;BME280;75469;47.654;10.494;2024-02-23T05:02:23;89957.53;;;0.82;84.32
85119;BME280;75469;47.654;10.494;2024-02-23T05:04:49;89953.84;;;1.10;82.95
85119;BME280;75469;47.654;10.494;2024-02-23T05:07:14;89962.59;;;0.98;82.75
85119;BME280;75469;47.654;10.494;2024-02-23T05:09:40;89954.66;;;0.87;83.09
85119;BME280;75469;47.654;10.494;2024-02-23T05:12:10;89953.03;;;0.79;83.78
85119;BME280;75469;47.654;10.494;2024-02-23T05:14:35;89948.75;;;0.90;83.43
85119;BME280;75469;47.654;10.494;2024-02-23T05:17:01;89947.88;;;0.83;83.61
85119;BME280;75469;47.654;10.494;2024-02-23T05:19:26;89952.81;;;0.88;83.18
85119;BME280;75469;47.654;10.494;2024-02-23T05:21:52;89950.91;;;0.85;83.19
85119;BME280;75469;47.654;10.494;2024-02-23T05:24:17;89963.53;;;0.86;83.19
85119;BME280;75469;47.654;10.494;2024-02-23T05:26:43;89964.81;;;1.23;82.74
85119;BME280;75469;47.654;10.494;2024-02-23T05:29:10;89963.41;;;1.29;81.52
85119;BME280;75469;47.654;10.494;2024-02-23T05:34:10;89961.69;;;0.87;83.37
85119;BME280;75469;47.654;10.494;2024-02-23T05:36:36;89960.28;;;0.93;83.55
85119;BME280;75469;47.654;10.494;2024-02-23T05:39:01;89964.59;;;0.82;84.84
85119;BME280;75469;47.654;10.494;2024-02-23T05:41:27;89962.19;;;0.96;84.66
85119;BME280;75469;47.654;10.494;2024-02-23T05:43:52;89961.44;;;0.96;84.44
85119;BME280;75469;47.654;10.494;2024-02-23T05:46:18;89954.09;;;1.01;84.84
85119;BME280;75469;47.654;10.494;2024-02-23T05:48:43;89958.66;;;1.08;84.47
85119;BME280;75469;47.654;10.494;2024-02-23T05:51:09;89962.38;;;1.07;84.85
85119;BME280;75469;47.654;10.494;2024-02-23T05:53:34;89958.78;;;1.15;84.64
85119;BME280;75469;47.654;10.494;2024-02-23T05:56:00;89962.38;;;1.07;84.60
85119;BME280;75469;47.654;10.494;2024-02-23T05:58:26;89960.13;;;1.05;84.59
85119;BME280;75469;47.654;10.494;2024-02-23T06:00:51;89959.16;;;1.17;84.01
85119;BME280;75469;47.654;10.494;2024-02-23T06:03:17;89957.63;;;1.12;84.59
85119;BME280;75469;47.654;10.494;2024-02-23T06:05:43;89954.28;;;1.12;84.51
85119;BME280;75469;47.654;10.494;2024-02-23T06:08:10;89949.06;;;1.12;84.29
85119;BME280;75469;47.654;10.494;2024-02-23T06:10:36;89946.59;;;1.23;83.60
85119;BME280;75469;47.654;10.494;2024-02-23T06:13:03;89947.53;;;1.11;84.30
85119;BME280;75469;47.654;10.494;2024-02-23T06:15:28;89942.34;;;1.11;84.63
85119;BME280;75469;47.654;10.494;2024-02-23T06:17:54;89942.41;;;1.14;84.21
85119;BME280;75469;47.654;10.494;2024-02-23T06:20:20;89947.66;;;1.18;84.17
85119;BME280;75469;47.654;10.494;2024-02-23T06:22:46;89950.72;;;1.24;83.98
85119;BME280;75469;47.654;10.494;2024-02-23T06:25:12;89946.56;;;1.19;84.15
85119;BME280;75469;47.654;10.494;2024-02-23T06:27:37;89952.47;;;1.16;84.38
85119;BME280;75469;47.654;10.494;2024-02-23T06:30:04;89956.91;;;1.16;84.44
85119;BME280;75469;47.654;10.494;2024-02-23T06:32:31;89958.78;;;1.15;84.38
85119;BME280;75469;47.654;10.494;2024-02-23T06:34:57;89964.78;;;1.19;84.16
85119;BME280;75469;47.654;10.494;2024-02-23T06:37:23;89960.47;;;1.30;83.41
85119;BME280;75469;47.654;10.494;2024-02-23T06:39:49;89966.09;;;1.32;83.29
85119;BME280;75469;47.654;10.494;2024-02-23T06:42:20;89964.63;;;1.35;81.90
85119;BME280;75469;47.654;10.494;2024-02-23T06:44:45;89968.69;;;1.32;81.81
85119;BME280;75469;47.654;10.494;2024-02-23T06:47:11;89970.19;;;1.33;81.42
85119;BME280;75469;47.654;10.494;2024-02-23T06:49:41;89963.88;;;1.34;80.73
85119;BME280;75469;47.654;10.494;2024-02-23T06:52:07;89956.00;;;1.31;81.28
85119;BME280;75469;47.654;10.494;2024-02-23T06:54:32;89965.28;;;1.28;81.46
85119;BME280;75469;47.654;10.494;2024-02-23T06:56:58;89962.66;;;1.28;80.48
85119;BME280;75469;47.654;10.494;2024-02-23T06:59:23;89962.38;;;1.33;80.65
85119;BME280;75469;47.654;10.494;2024-02-23T07:01:52;89971.22;;;1.29;81.07
85119;BME280;75469;47.654;10.494;2024-02-23T07:04:19;89971.69;;;1.34;81.38
85119;BME280;75469;47.654;10.494;2024-02-23T07:06:44;89973.13;;;1.32;80.97
85119;BME280;75469;47.654;10.494;2024-02-23T07:09:10;89969.19;;;1.42;81.08
85119;BME280;75469;47.654;10.494;2024-02-23T07:11:37;89971.38;;;1.40;80.84
85119;BME280;75469;47.654;10.494;2024-02-23T07:14:03;89965.72;;;1.34;81.17
85119;BME280;75469;47.654;10.494;2024-02-23T07:16:29;89975.34;;;1.30;79.77
85119;BME280;75469;47.654;10.494;2024-02-23T07:18:54;89979.03;;;1.29;80.43
85119;BME280;75469;47.654;10.494;2024-02-23T07:21:20;89982.41;;;1.29;80.67
85119;BME280;75469;47.654;10.494;2024-02-23T07:23:46;89981.78;;;1.36;80.61
85119;BME280;75469;47.654;10.494;2024-02-23T07:26:11;89990.28;;;1.33;81.18
85119;BME280;75469;47.654;10.494;2024-02-23T07:28:37;89985.56;;;1.42;80.78
85119;BME280;75469;47.654;10.494;2024-02-23T07:31:03;89986.41;;;1.50;80.77
85119;BME280;75469;47.654;10.494;2024-02-23T07:33:28;89985.25;;;1.47;80.78
85119;BME280;75469;47.654;10.494;2024-02-23T07:35:54;89981.94;;;1.50;80.19
85119;BME280;75469;47.654;10.494;2024-02-23T07:38:19;89951.50;;;1.54;80.12
85119;BME280;75469;47.654;10.494;2024-02-23T07:40:46;89942.25;;;1.60;79.15
85119;BME280;75469;47.654;10.494;2024-02-23T07:43:12;89949.97;;;1.53;79.01
85119;BME280;75469;47.654;10.494;2024-02-23T07:45:38;89974.50;;;1.49;80.01
85119;BME280;75469;47.654;10.494;2024-02-23T07:48:05;89973.78;;;1.52;80.51
85119;BME280;75469;47.654;10.494;2024-02-23T07:50:31;89974.66;;;1.59;79.23
85119;BME280;75469;47.654;10.494;2024-02-23T07:52:56;89977.13;;;1.52;79.57
85119;BME280;75469;47.654;10.494;2024-02-23T07:55:22;89968.41;;;1.41;80.65
85119;BME280;75469;47.654;10.494;2024-02-23T07:57:48;89967.78;;;1.48;79.45
85119;BME280;75469;47.654;10.494;2024-02-23T08:00:13;89956.16;;;1.42;79.05
85119;BME280;75469;47.654;10.494;2024-02-23T08:02:39;89962.97;;;1.50;78.95
85119;BME280;75469;47.654;10.494;2024-02-23T08:05:08;89957.94;;;1.64;79.10
85119;BME280;75469;47.654;10.494;2024-02-23T08:07:35;89962.69;;;1.58;78.87
85119;BME280;75469;47.654;10.494;2024-02-23T08:10:01;89964.16;;;1.56;79.75
85119;BME280;75469;47.654;10.494;2024-02-23T08:12:28;89969.44;;;1.59;79.29
85119;BME280;75469;47.654;10.494;2024-02-23T08:14:54;89979.94;;;1.67;78.77
85119;BME280;75469;47.654;10.494;2024-02-23T08:17:21;89979.84;;;1.59;80.11
85119;BME280;75469;47.654;10.494;2024-02-23T08:19:47;89991.53;;;1.69;80.19
85119;BME280;75469;47.654;10.494;2024-02-23T08:22:12;89997.06;;;1.68;80.19
85119;BME280;75469;47.654;10.494;2024-02-23T08:24:38;89985.19;;;1.70;80.30
85119;BME280;75469;47.654;10.494;2024-02-23T08:27:03;89987.13;;;1.77;80.66
85119;BME280;75469;47.654;10.494;2024-02-23T08:29:29;89976.75;;;1.80;79.54
85119;BME280;75469;47.654;10.494;2024-02-23T08:31:55;89974.59;;;1.86;79.07
85119;BME280;75469;47.654;10.494;2024-02-23T08:34:21;89984.56;;;1.80;79.98
85119;BME280;75469;47.654;10.494;2024-02-23T08:36:46;89999.94;;;1.89;78.74
85119;BME280;75469;47.654;10.494;2024-02-23T08:39:12;90003.38;;;1.93;79.21
85119;BME280;75469;47.654;10.494;2024-02-23T08:41:38;90007.88;;;1.96;79.22
85119;BME280;75469;47.654;10.494;2024-02-23T08:44:04;89999.59;;;1.91;78.51
85119;BME280;75469;47.654;10.494;2024-02-23T08:46:30;89985.06;;;1.90;78.48
85119;BME280;75469;47.654;10.494;2024-02-23T08:48:56;89986.59;;;1.94;78.59
85119;BME280;75469;47.654;10.494;2024-02-23T08:51:23;89996.38;;;2.01;77.73
85119;BME280;75469;47.654;10.494;2024-02-23T08:53:49;89986.66;;;1.98;77.01
85119;BME280;75469;47.654;10.494;2024-02-23T08:56:16;90001.31;;;2.10;77.69
85119;BME280;75469;47.654;10.494;2024-02-23T08:58:41;90010.91;;;2.02;77.26
85119;BME280;75469;47.654;10.494;2024-02-23T09:01:07;90011.16;;;1.90;75.47
85119;BME280;75469;47.654;10.494;2024-02-23T09:03:34;90025.63;;;1.87;76.39
85119;BME280;75469;47.654;10.494;2024-02-23T09:06:00;90027.56;;;1.94;75.76
85119;BME280;75469;47.654;10.494;2024-02-23T09:08:26;90036.06;;;1.87;75.85
85119;BME280;75469;47.654;10.494;2024-02-23T09:10:53;90033.19;;;1.96;76.60
85119;BME280;75469;47.654;10.494;2024-02-23T09:13:18;90026.28;;;1.80;76.79
85119;BME280;75469;47.654;10.494;2024-02-23T09:15:44;90022.13;;;1.76;77.78
85119;BME280;75469;47.654;10.494;2024-02-23T09:18:09;90037.41;;;1.77;76.65
85119;BME280;75469;47.654;10.494;2024-02-23T09:20:35;90026.88;;;1.70;77.76
85119;BME280;75469;47.654;10.494;2024-02-23T09:23:00;90013.34;;;1.88;75.05
85119;BME280;75469;47.654;10.494;2024-02-23T09:25:26;90017.47;;;1.92;75.27
85119;BME280;75469;47.654;10.494;2024-02-23T09:31:10;90016.16;;;1.75;74.55
85119;BME280;75469;47.654;10.494;2024-02-23T09:33:36;90003.31;;;1.90;72.93
85119;BME280;75469;47.654;10.494;2024-02-23T09:36:02;90011.84;;;1.87;72.02
85119;BME280;75469;47.654;10.494;2024-02-23T09:38:28;90005.88;;;1.86;72.70
85119;BME280;75469;47.654;10.494;2024-02-23T09:40:53;90009.72;;;1.96;72.12
85119;BME280;75469;47.654;10.494;2024-02-23T09:43:22;89990.38;;;1.97;72.41
85119;BME280;75469;47.654;10.494;2024-02-23T09:45:51;89993.50;;;2.10;69.85
85119;BME280;75469;47.654;10.494;2024-02-23T09:48:18;89991.75;;;2.21;68.66
85119;BME280;75469;47.654;10.494;2024-02-23T09:50:45;89984.59;;;2.14;67.86
85119;BME280;75469;47.654;10.494;2024-02-23T09:53:13;89988.69;;;2.12;70.76
85119;BME280;75469;47.654;10.494;2024-02-23T09:55:38;89998.75;;;2.13;67.70
85119;BME280;75469;47.654;10.494;2024-02-23T09:58:04;90000.78;;;2.27;66.54
85119;BME280;75469;47.654;10.494;2024-02-23T10:00:32;90000.09;;;2.34;67.10
85119;BME280;75469;47.654;10.494;2024-02-23T10:03:00;90010.97;;;2.39;71.48
85119;BME280;75469;47.654;10.494;2024-02-23T10:05:29;90012.19;;;2.49;72.75
85119;BME280;75469;47.654;10.494;2024-02-23T10:07:55;90014.94;;;2.63;73.08
85119;BME280;75469;47.654;10.494;2024-02-23T10:10:45;90017.38;;;2.45;73.81
85119;BME280;75469;47.654;10.494;2024-02-23T10:13:10;90021.78;;;2.38;72.00
85119;BME280;75469;47.654;10.494;2024-02-23T10:15:36;90025.50;;;2.40;73.29
85119;BME280;75469;47.654;10.494;2024-02-23T10:18:01;90028.34;;;2.28;72.87
85119;BME280;75469;47.654;10.494;2024-02-23T10:20:27;90020.22;;;2.33;72.15
85119;BME280;75469;47.654;10.494;2024-02-23T10:22:53;90034.72;;;2.31;72.68
85119;BME280;75469;47.654;10.494;2024-02-23T10:25:19;90041.13;;;2.37;72.32
85119;BME280;75469;47.654;10.494;2024-02-23T10:27:44;90042.50;;;2.27;72.88
85119;BME280;75469;47.654;10.494;2024-02-23T10:30:10;90044.72;;;2.25;73.32
85119;BME280;75469;47.654;10.494;2024-02-23T10:32:40;90046.63;;;2.32;73.30
85119;BME280;75469;47.654;10.494;2024-02-23T10:35:10;90049.75;;;2.41;72.77
85119;BME280;75469;47.654;10.494;2024-02-23T10:37:36;90049.22;;;2.28;73.03
85119;BME280;75469;47.654;10.494;2024-02-23T10:40:01;90043.25;;;2.27;71.98
85119;BME280;75469;47.654;10.494;2024-02-23T10:42:33;90039.69;;;2.43;71.41
85119;BME280;75469;47.654;10.494;2024-02-23T10:45:01;90023.50;;;2.26;70.71
85119;BME280;75469;47.654;10.494;2024-02-23T10:47:28;90022.28;;;2.17;71.21
85119;BME280;75469;47.654;10.494;2024-02-23T10:49:53;90014.78;;;2.15;71.12
85119;BME280;75469;47.654;10.494;2024-02-23T10:52:22;90026.34;;;2.14;68.28
85119;BME280;75469;47.654;10.494;2024-02-23T10:54:50;90014.50;;;2.20;68.88
85119;BME280;75469;47.654;10.494;2024-02-23T10:57:17;90026.09;;;2.26;68.16
85119;BME280;75469;47.654;10.494;2024-02-23T10:59:46;90030.22;;;2.27;67.91
85119;BME280;75469;47.654;10.494;2024-02-23T11:02:13;90036.56;;;2.30;67.13
85119;BME280;75469;47.654;10.494;2024-02-23T11:04:46;90027.72;;;2.38;65.95
85119;BME280;75469;47.654;10.494;2024-02-23T11:07:18;90034.81;;;2.38;65.64
85119;BME280;75469;47.654;10.494;2024-02-23T11:09:49;90027.66;;;2.35;66.86
85119;BME280;75469;47.654;10.494;2024-02-23T11:12:22;90014.44;;;2.17;67.18
85119;BME280;75469;47.654;10.494;2024-02-23T11:14:49;90027.13;;;2.18;66.84
85119;BME280;75469;47.654;10.494;2024-02-23T11:17:19;90028.56;;;2.16;65.31
85119;BME280;75469;47.654;10.494;2024-02-23T11:19:50;90031.94;;;2.16;64.63
85119;BME280;75469;47.654;10.494;2024-02-23T11:22:35;90020.06;;;1.89;65.24
85119;BME280;75469;47.654;10.494;2024-02-23T11:25:06;90015.38;;;2.01;66.46
85119;BME280;75469;47.654;10.494;2024-02-23T11:27:34;90013.38;;;2.21;66.59
85119;BME280;75469;47.654;10.494;2024-02-23T11:30:05;90010.81;;;1.95;67.23
85119;BME280;75469;47.654;10.494;2024-02-23T11:32:43;90015.09;;;2.10;64.19
85119;BME280;75469;47.654;10.494;2024-02-23T11:35:11;90016.72;;;2.22;66.51
85119;BME280;75469;47.654;10.494;2024-02-23T11:37:48;90016.06;;;2.28;65.00
85119;BME280;75469;47.654;10.494;2024-02-23T11:40:17;90017.63;;;2.37;62.70
85119;BME280;75469;47.654;10.494;2024-02-23T11:42:43;90013.22;;;2.41;62.68
85119;BME280;75469;47.654;10.494;2024-02-23T11:45:10;90017.06;;;2.50;66.03
85119;BME280;75469;47.654;10.494;2024-02-23T11:47:38;90003.09;;;2.73;64.92
85119;BME280;75469;47.654;10.494;2024-02-23T11:50:08;90000.41;;;2.62;64.84
85119;BME280;75469;47.654;10.494;2024-02-23T11:52:33;90019.75;;;2.61;64.63
85119;BME280;75469;47.654;10.494;2024-02-23T11:54:59;90018.72;;;2.69;63.65
85119;BME280;75469;47.654;10.494;2024-02-23T11:57:25;90011.84;;;2.91;62.44
85119;BME280;75469;47.654;10.494;2024-02-23T11:59:51;90004.63;;;2.74;62.90
85119;BME280;75469;47.654;10.494;2024-02-23T12:02:17;89996.00;;;2.73;62.82
85119;BME280;75469;47.654;10.494;2024-02-23T12:04:43;89992.66;;;2.73;61.48
85119;BME280;75469;47.654;10.494;2024-02-23T12:07:09;89992.19;;;2.64;63.37
85119;BME280;75469;47.654;10.494;2024-02-23T12:09:35;89991.81;;;2.62;62.58
85119;BME280;75469;47.654;10.494;2024-02-23T12:12:00;89990.13;;;2.80;60.64
85119;BME280;75469;47.654;10.494;2024-02-23T12:14:26;89990.16;;;2.84;61.00
85119;BME280;75469;47.654;10.494;2024-02-23T12:16:52;89991.91;;;2.72;62.54
85119;BME280;75469;47.654;10.494;2024-02-23T12:19:17;89998.44;;;2.56;64.78
85119;BME280;75469;47.654;10.494;2024-02-23T12:21:46;89985.41;;;2.56;62.75
85119;BME280;75469;47.654;10.494;2024-02-23T12:24:12;89991.00;;;2.54;64.11
85119;BME280;75469;47.654;10.494;2024-02-23T12:26:38;89998.00;;;2.87;65.14
85119;BME280;75469;47.654;10.494;2024-02-23T12:29:03;89993.47;;;2.77;64.03
85119;BME280;75469;47.654;10.494;2024-02-23T12:31:31;89997.03;;;2.62;65.23
85119;BME280;75469;47.654;10.494;2024-02-23T12:33:57;89995.94;;;2.63;62.99
85119;BME280;75469;47.654;10.494;2024-02-23T12:36:23;89989.34;;;2.39;64.98
85119;BME280;75469;47.654;10.494;2024-02-23T12:38:49;89979.53;;;2.28;65.70
85119;BME280;75469;47.654;10.494;2024-02-23T12:41:15;89975.44;;;2.27;63.63
85119;BME280;75469;47.654;10.494;2024-02-23T12:43:40;89990.81;;;2.36;66.50
85119;BME280;75469;47.654;10.494;2024-02-23T12:46:06;89985.16;;;2.31;61.40
85119;BME280;75469;47.654;10.494;2024-02-23T12:48:33;89992.72;;;2.43;61.92
85119;BME280;75469;47.654;10.494;2024-02-23T12:50:59;89991.75;;;2.58;60.92
85119;BME280;75469;47.654;10.494;2024-02-23T12:53:41;89994.06;;;2.63;59.46
85119;BME280;75469;47.654;10.494;2024-02-23T12:56:12;89981.41;;;2.65;60.60
85119;BME280;75469;47.654;10.494;2024-02-23T12:58:42;89979.16;;;2.64;61.28
85119;BME280;75469;47.654;10.494;2024-02-23T13:01:11;89982.03;;;2.55;62.12